sensor_id;sensor_type;location;lat;lon;timestamp;P1;durP1;ratioP1;P2;durP2;ratioP2
16766;SDS011;8501;49.926;8.404;2024-03-23T00:54:20;25.77;;;16.60;;
16766;SDS011;8501;49.926;8.404;2024-03-23T00:56:45;30.40;;;17.33;;
16766;SDS011;8501;49.926;8.404;2024-03-23T00:59:11;26.80;;;17.43;;
16766;SDS011;8501;49.926;8.404;2024-03-23T01:01:36;23.53;;;16.13;;
16766;SDS011;8501;49.926;8.404;2024-03-23T01:04:02;24.83;;;16.37;;
16766;SDS011;8501;49.926;8.404;2024-03-23T01:06:28;27.70;;;17.10;;
16766;SDS011;8501;49.926;8.404;2024-03-23T01:08:53;26.83;;;17.13;;
16766;SDS011;8501;49.926;8.404;2024-03-23T01:11:19;26.57;;;16.60;;
16766;SDS011;8501;49.926;8.404;2024-03-23T01:13:44;23.27;;;16.10;;
16766;SDS011;8501;49.926;8.404;2024-03-23T01:16:10;26.80;;;15.70;;
16766;SDS011;8501;49.926;8.404;2024-03-23T01:18:36;23.93;;;16.43;;
16766;SDS011;8501;49.926;8.404;2024-03-23T01:21:01;23.57;;;16.40;;
16766;SDS011;8501;49.926;8.404;2024-03-23T01:23:27;23.57;;;16.07;;
16766;SDS011;8501;49.926;8.404;2024-03-23T01:25:53;26.20;;;17.13;;
16766;SDS011;8501;49.926;8.404;2024-03-23T01:28:19;23.97;;;16.23;;
16766;SDS011;8501;49.926;8.404;2024-03-23T01:30:45;27.10;;;17.03;;
16766;SDS011;8501;49.926;8.404;2024-03-23T01:33:11;24.60;;;16.10;;
16766;SDS011;8501;49.926;8.404;2024-03-23T01:35:37;28.40;;;17.27;;
16766;SDS011;8501;49.926;8.404;2024-03-23T01:38:03;27.87;;;16.67;;
16766;SDS011;8501;49.926;8.404;2024-03-23T01:40:28;26.90;;;16.47;;
16766;SDS011;8501;49.926;8.404;2024-03-23T01:43:04;26.13;;;16.87;;
16766;SDS011;8501;49.926;8.404;2024-03-23T01:45:31;26.50;;;16.80;;
16766;SDS011;8501;49.926;8.404;2024-03-23T01:47:57;26.23;;;16.60;;
16766;SDS011;8501;49.926;8.404;2024-03-23T01:50:23;27.53;;;16.63;;
16766;SDS011;8501;49.926;8.404;2024-03-23T01:52:50;29.57;;;17.00;;
16766;SDS011;8501;49.926;8.404;2024-03-23T01:55:16;26.37;;;15.97;;
16766;SDS011;8501;49.926;8.404;2024-03-23T01:57:41;27.67;;;16.93;;
16766;SDS011;8501;49.926;8.404;2024-03-23T02:00:07;26.67;;;16.83;;
16766;SDS011;8501;49.926;8.404;2024-03-23T02:02:46;26.80;;;16.73;;
16766;SDS011;8501;49.926;8.404;2024-03-23T02:05:12;26.97;;;16.43;;
16766;SDS011;8501;49.926;8.404;2024-03-23T02:07:39;27.73;;;17.50;;
16766;SDS011;8501;49.926;8.404;2024-03-23T02:10:08;26.83;;;16.83;;
16766;SDS011;8501;49.926;8.404;2024-03-23T02:12:43;24.10;;;15.93;;
16766;SDS011;8501;49.926;8.404;2024-03-23T02:15:09;27.30;;;16.97;;
16766;SDS011;8501;49.926;8.404;2024-03-23T02:17:35;25.23;;;16.23;;
16766;SDS011;8501;49.926;8.404;2024-03-23T02:20:01;27.03;;;16.10;;
16766;SDS011;8501;49.926;8.404;2024-03-23T02:22:38;28.40;;;16.50;;
16766;SDS011;8501;49.926;8.404;2024-03-23T02:25:04;24.90;;;16.50;;
16766;SDS011;8501;49.926;8.404;2024-03-23T02:27:30;31.90;;;17.83;;
16766;SDS011;8501;49.926;8.404;2024-03-23T02:29:56;27.07;;;17.07;;
16766;SDS011;8501;49.926;8.404;2024-03-23T02:32:22;29.83;;;17.67;;
16766;SDS011;8501;49.926;8.404;2024-03-23T02:34:47;30.70;;;18.20;;
16766;SDS011;8501;49.926;8.404;2024-03-23T02:37:13;32.27;;;17.67;;
16766;SDS011;8501;49.926;8.404;2024-03-23T02:39:39;30.93;;;18.10;;
16766;SDS011;8501;49.926;8.404;2024-03-23T02:42:04;28.87;;;17.80;;
16766;SDS011;8501;49.926;8.404;2024-03-23T02:44:30;29.50;;;17.90;;
16766;SDS011;8501;49.926;8.404;2024-03-23T02:46:55;27.37;;;16.47;;
16766;SDS011;8501;49.926;8.404;2024-03-23T02:49:21;28.73;;;17.37;;
16766;SDS011;8501;49.926;8.404;2024-03-23T02:51:46;32.73;;;18.00;;
16766;SDS011;8501;49.926;8.404;2024-03-23T02:54:13;31.60;;;17.33;;
16766;SDS011;8501;49.926;8.404;2024-03-23T02:56:39;30.57;;;17.10;;
16766;SDS011;8501;49.926;8.404;2024-03-23T02:59:04;31.23;;;17.87;;
16766;SDS011;8501;49.926;8.404;2024-03-23T03:01:30;31.70;;;17.70;;
16766;SDS011;8501;49.926;8.404;2024-03-23T03:03:55;32.47;;;17.83;;
16766;SDS011;8501;49.926;8.404;2024-03-23T03:06:24;34.67;;;19.07;;
16766;SDS011;8501;49.926;8.404;2024-03-23T03:08:50;33.60;;;18.50;;
16766;SDS011;8501;49.926;8.404;2024-03-23T03:11:16;34.67;;;18.67;;
16766;SDS011;8501;49.926;8.404;2024-03-23T03:13:41;29.17;;;17.40;;
16766;SDS011;8501;49.926;8.404;2024-03-23T03:16:10;30.17;;;17.90;;
16766;SDS011;8501;49.926;8.404;2024-03-23T03:18:36;29.43;;;17.70;;
16766;SDS011;8501;49.926;8.404;2024-03-23T03:21:02;31.30;;;17.80;;
16766;SDS011;8501;49.926;8.404;2024-03-23T03:23:28;30.33;;;19.07;;
16766;SDS011;8501;49.926;8.404;2024-03-23T03:25:53;28.60;;;18.07;;
16766;SDS011;8501;49.926;8.404;2024-03-23T03:28:19;27.27;;;17.10;;
16766;SDS011;8501;49.926;8.404;2024-03-23T03:30:45;25.83;;;16.07;;
16766;SDS011;8501;49.926;8.404;2024-03-23T03:33:10;24.93;;;15.97;;
16766;SDS011;8501;49.926;8.404;2024-03-23T03:35:36;24.80;;;16.37;;
16766;SDS011;8501;49.926;8.404;2024-03-23T03:38:02;28.13;;;16.67;;
16766;SDS011;8501;49.926;8.404;2024-03-23T03:40:29;31.10;;;16.20;;
16766;SDS011;8501;49.926;8.404;2024-03-23T03:42:55;30.80;;;18.07;;
16766;SDS011;8501;49.926;8.404;2024-03-23T03:45:20;25.20;;;16.57;;
16766;SDS011;8501;49.926;8.404;2024-03-23T03:47:46;24.17;;;16.33;;
16766;SDS011;8501;49.926;8.404;2024-03-23T03:50:11;28.03;;;16.63;;
16766;SDS011;8501;49.926;8.404;2024-03-23T03:52:37;25.47;;;16.00;;
16766;SDS011;8501;49.926;8.404;2024-03-23T03:55:03;27.77;;;17.23;;
16766;SDS011;8501;49.926;8.404;2024-03-23T03:57:28;27.50;;;17.53;;
16766;SDS011;8501;49.926;8.404;2024-03-23T03:59:54;29.13;;;16.77;;
16766;SDS011;8501;49.926;8.404;2024-03-23T04:02:20;28.83;;;17.00;;
16766;SDS011;8501;49.926;8.404;2024-03-23T04:04:45;32.23;;;19.47;;
16766;SDS011;8501;49.926;8.404;2024-03-23T04:07:11;31.00;;;19.40;;
16766;SDS011;8501;49.926;8.404;2024-03-23T04:09:36;30.13;;;18.90;;
16766;SDS011;8501;49.926;8.404;2024-03-23T04:12:02;30.43;;;17.87;;
16766;SDS011;8501;49.926;8.404;2024-03-23T04:14:27;27.47;;;16.03;;
16766;SDS011;8501;49.926;8.404;2024-03-23T04:16:53;25.43;;;14.27;;
16766;SDS011;8501;49.926;8.404;2024-03-23T04:19:18;27.23;;;13.70;;
16766;SDS011;8501;49.926;8.404;2024-03-23T04:21:45;25.40;;;12.73;;
16766;SDS011;8501;49.926;8.404;2024-03-23T04:24:11;19.33;;;11.00;;
16766;SDS011;8501;49.926;8.404;2024-03-23T04:26:40;19.17;;;10.30;;
16766;SDS011;8501;49.926;8.404;2024-03-23T04:29:06;9.97;;;5.60;;
16766;SDS011;8501;49.926;8.404;2024-03-23T04:31:32;6.93;;;3.67;;
16766;SDS011;8501;49.926;8.404;2024-03-23T04:33:59;5.00;;;3.13;;
16766;SDS011;8501;49.926;8.404;2024-03-23T04:36:25;4.70;;;3.03;;
16766;SDS011;8501;49.926;8.404;2024-03-23T04:38:51;3.93;;;2.57;;
16766;SDS011;8501;49.926;8.404;2024-03-23T04:41:17;4.20;;;2.60;;
16766;SDS011;8501;49.926;8.404;2024-03-23T04:43:43;2.90;;;2.10;;
16766;SDS011;8501;49.926;8.404;2024-03-23T04:46:08;3.27;;;1.60;;
16766;SDS011;8501;49.926;8.404;2024-03-23T04:48:34;3.47;;;2.07;;
16766;SDS011;8501;49.926;8.404;2024-03-23T04:51:01;2.67;;;1.80;;
16766;SDS011;8501;49.926;8.404;2024-03-23T04:53:26;3.30;;;2.10;;
16766;SDS011;8501;49.926;8.404;2024-03-23T04:55:58;2.57;;;1.83;;
16766;SDS011;8501;49.926;8.404;2024-03-23T04:58:27;4.83;;;2.30;;
16766;SDS011;8501;49.926;8.404;2024-03-23T05:00:53;3.23;;;2.10;;
16766;SDS011;8501;49.926;8.404;2024-03-23T05:03:19;1.83;;;1.50;;
16766;SDS011;8501;49.926;8.404;2024-03-23T05:05:46;2.87;;;1.70;;
16766;SDS011;8501;49.926;8.404;2024-03-23T05:08:12;2.63;;;1.53;;
16766;SDS011;8501;49.926;8.404;2024-03-23T05:10:37;1.53;;;1.33;;
16766;SDS011;8501;49.926;8.404;2024-03-23T05:13:03;2.43;;;1.63;;
16766;SDS011;8501;49.926;8.404;2024-03-23T05:15:29;1.80;;;1.60;;
16766;SDS011;8501;49.926;8.404;2024-03-23T05:17:55;2.30;;;1.70;;
16766;SDS011;8501;49.926;8.404;2024-03-23T05:20:20;2.80;;;2.50;;
16766;SDS011;8501;49.926;8.404;2024-03-23T05:22:46;2.87;;;2.50;;
16766;SDS011;8501;49.926;8.404;2024-03-23T05:25:12;3.50;;;2.70;;
16766;SDS011;8501;49.926;8.404;2024-03-23T05:27:37;3.10;;;2.80;;
16766;SDS011;8501;49.926;8.404;2024-03-23T05:30:03;3.53;;;2.60;;
16766;SDS011;8501;49.926;8.404;2024-03-23T05:32:30;5.13;;;3.10;;
16766;SDS011;8501;49.926;8.404;2024-03-23T05:34:56;3.93;;;3.33;;
16766;SDS011;8501;49.926;8.404;2024-03-23T05:37:22;4.87;;;3.57;;
16766;SDS011;8501;49.926;8.404;2024-03-23T05:39:48;4.37;;;3.20;;
16766;SDS011;8501;49.926;8.404;2024-03-23T05:42:15;4.43;;;3.23;;
16766;SDS011;8501;49.926;8.404;2024-03-23T05:44:44;3.57;;;3.10;;
16766;SDS011;8501;49.926;8.404;2024-03-23T05:47:10;3.97;;;3.00;;
16766;SDS011;8501;49.926;8.404;2024-03-23T05:49:37;3.77;;;2.90;;
16766;SDS011;8501;49.926;8.404;2024-03-23T05:52:03;3.57;;;2.80;;
16766;SDS011;8501;49.926;8.404;2024-03-23T05:54:29;2.70;;;2.10;;
16766;SDS011;8501;49.926;8.404;2024-03-23T05:56:55;2.10;;;1.90;;
16766;SDS011;8501;49.926;8.404;2024-03-23T05:59:21;3.43;;;2.00;;
16766;SDS011;8501;49.926;8.404;2024-03-23T06:01:49;2.80;;;1.70;;
16766;SDS011;8501;49.926;8.404;2024-03-23T06:04:14;2.10;;;1.67;;
16766;SDS011;8501;49.926;8.404;2024-03-23T06:06:40;2.40;;;1.50;;
16766;SDS011;8501;49.926;8.404;2024-03-23T06:09:05;2.57;;;1.60;;
16766;SDS011;8501;49.926;8.404;2024-03-23T06:11:31;1.43;;;1.33;;
16766;SDS011;8501;49.926;8.404;2024-03-23T06:13:56;1.47;;;1.37;;
16766;SDS011;8501;49.926;8.404;2024-03-23T06:16:22;2.00;;;1.67;;
16766;SDS011;8501;49.926;8.404;2024-03-23T06:18:52;3.47;;;2.50;;
16766;SDS011;8501;49.926;8.404;2024-03-23T06:21:17;3.27;;;1.90;;
16766;SDS011;8501;49.926;8.404;2024-03-23T06:23:43;2.27;;;2.00;;
16766;SDS011;8501;49.926;8.404;2024-03-23T06:26:15;5.90;;;4.70;;
16766;SDS011;8501;49.926;8.404;2024-03-23T06:28:45;42.47;;;24.73;;
16766;SDS011;8501;49.926;8.404;2024-03-23T06:31:11;12.97;;;10.57;;
16766;SDS011;8501;49.926;8.404;2024-03-23T06:33:36;10.43;;;8.37;;
16766;SDS011;8501;49.926;8.404;2024-03-23T06:36:03;3.60;;;3.30;;
16766;SDS011;8501;49.926;8.404;2024-03-23T06:38:33;3.50;;;3.20;;
16766;SDS011;8501;49.926;8.404;2024-03-23T06:40:59;5.00;;;4.50;;
16766;SDS011;8501;49.926;8.404;2024-03-23T06:43:27;4.50;;;3.63;;
16766;SDS011;8501;49.926;8.404;2024-03-23T06:45:53;4.13;;;3.60;;
16766;SDS011;8501;49.926;8.404;2024-03-23T06:48:19;5.40;;;4.77;;
16766;SDS011;8501;49.926;8.404;2024-03-23T06:50:45;14.97;;;11.07;;
16766;SDS011;8501;49.926;8.404;2024-03-23T06:53:12;9.57;;;6.83;;
16766;SDS011;8501;49.926;8.404;2024-03-23T06:55:38;5.93;;;4.20;;
16766;SDS011;8501;49.926;8.404;2024-03-23T06:58:04;7.07;;;6.00;;
16766;SDS011;8501;49.926;8.404;2024-03-23T07:00:29;6.73;;;5.70;;
16766;SDS011;8501;49.926;8.404;2024-03-23T07:02:55;15.17;;;10.17;;
16766;SDS011;8501;49.926;8.404;2024-03-23T07:05:20;7.07;;;5.60;;
16766;SDS011;8501;49.926;8.404;2024-03-23T07:07:46;4.47;;;3.27;;
16766;SDS011;8501;49.926;8.404;2024-03-23T07:10:11;3.40;;;3.03;;
16766;SDS011;8501;49.926;8.404;2024-03-23T07:12:37;4.03;;;3.13;;
16766;SDS011;8501;49.926;8.404;2024-03-23T07:15:03;3.83;;;3.37;;
16766;SDS011;8501;49.926;8.404;2024-03-23T07:17:28;6.13;;;3.50;;
16766;SDS011;8501;49.926;8.404;2024-03-23T07:19:54;37.20;;;18.40;;
16766;SDS011;8501;49.926;8.404;2024-03-23T07:22:19;45.33;;;24.83;;
16766;SDS011;8501;49.926;8.404;2024-03-23T07:24:45;46.30;;;25.33;;
16766;SDS011;8501;49.926;8.404;2024-03-23T07:27:11;14.97;;;10.00;;
16766;SDS011;8501;49.926;8.404;2024-03-23T07:29:36;7.70;;;5.97;;
16766;SDS011;8501;49.926;8.404;2024-03-23T07:32:02;5.57;;;3.90;;
16766;SDS011;8501;49.926;8.404;2024-03-23T07:34:28;8.73;;;5.27;;
16766;SDS011;8501;49.926;8.404;2024-03-23T07:36:53;19.03;;;11.10;;
16766;SDS011;8501;49.926;8.404;2024-03-23T07:39:19;19.63;;;10.20;;
16766;SDS011;8501;49.926;8.404;2024-03-23T07:41:45;25.73;;;15.23;;
16766;SDS011;8501;49.926;8.404;2024-03-23T07:44:10;32.33;;;15.90;;
16766;SDS011;8501;49.926;8.404;2024-03-23T07:46:36;11.10;;;6.70;;
16766;SDS011;8501;49.926;8.404;2024-03-23T07:49:01;14.57;;;8.87;;
16766;SDS011;8501;49.926;8.404;2024-03-23T07:51:29;16.07;;;9.07;;
16766;SDS011;8501;49.926;8.404;2024-03-23T07:53:54;7.47;;;4.80;;
16766;SDS011;8501;49.926;8.404;2024-03-23T07:56:20;7.07;;;4.80;;
16766;SDS011;8501;49.926;8.404;2024-03-23T07:58:46;8.83;;;5.43;;
16766;SDS011;8501;49.926;8.404;2024-03-23T08:01:13;8.10;;;6.00;;
16766;SDS011;8501;49.926;8.404;2024-03-23T08:03:41;9.47;;;6.07;;
16766;SDS011;8501;49.926;8.404;2024-03-23T08:08:37;10.43;;;7.07;;
16766;SDS011;8501;49.926;8.404;2024-03-23T08:11:03;13.00;;;8.23;;
16766;SDS011;8501;49.926;8.404;2024-03-23T08:13:30;9.33;;;7.47;;
16766;SDS011;8501;49.926;8.404;2024-03-23T08:15:56;10.90;;;7.23;;
16766;SDS011;8501;49.926;8.404;2024-03-23T08:18:22;11.97;;;7.30;;
16766;SDS011;8501;49.926;8.404;2024-03-23T08:20:55;11.80;;;7.43;;
16766;SDS011;8501;49.926;8.404;2024-03-23T08:23:24;15.03;;;7.17;;
16766;SDS011;8501;49.926;8.404;2024-03-23T08:25:51;10.97;;;6.50;;
16766;SDS011;8501;49.926;8.404;2024-03-23T08:28:17;12.67;;;6.83;;
16766;SDS011;8501;49.926;8.404;2024-03-23T08:30:42;9.93;;;6.00;;
16766;SDS011;8501;49.926;8.404;2024-03-23T08:33:08;13.20;;;5.87;;
16766;SDS011;8501;49.926;8.404;2024-03-23T08:35:33;10.07;;;5.67;;
16766;SDS011;8501;49.926;8.404;2024-03-23T08:37:59;16.13;;;9.13;;
16766;SDS011;8501;49.926;8.404;2024-03-23T08:40:25;12.87;;;7.17;;
16766;SDS011;8501;49.926;8.404;2024-03-23T08:42:51;19.53;;;14.40;;
16766;SDS011;8501;49.926;8.404;2024-03-23T08:45:16;16.43;;;11.47;;
16766;SDS011;8501;49.926;8.404;2024-03-23T08:47:42;12.80;;;7.00;;
16766;SDS011;8501;49.926;8.404;2024-03-23T08:50:07;11.07;;;5.33;;
16766;SDS011;8501;49.926;8.404;2024-03-23T08:52:33;18.73;;;10.70;;
16766;SDS011;8501;49.926;8.404;2024-03-23T08:54:59;14.93;;;7.90;;
16766;SDS011;8501;49.926;8.404;2024-03-23T08:57:25;17.47;;;10.40;;
16766;SDS011;8501;49.926;8.404;2024-03-23T08:59:50;15.70;;;7.43;;
16766;SDS011;8501;49.926;8.404;2024-03-23T09:02:16;12.20;;;6.93;;
16766;SDS011;8501;49.926;8.404;2024-03-23T09:04:41;13.40;;;6.97;;
16766;SDS011;8501;49.926;8.404;2024-03-23T09:07:07;10.93;;;6.47;;
16766;SDS011;8501;49.926;8.404;2024-03-23T09:09:33;10.50;;;5.83;;
16766;SDS011;8501;49.926;8.404;2024-03-23T09:11:58;13.27;;;7.20;;
16766;SDS011;8501;49.926;8.404;2024-03-23T09:14:24;12.13;;;5.70;;
16766;SDS011;8501;49.926;8.404;2024-03-23T09:16:49;13.53;;;6.90;;
16766;SDS011;8501;49.926;8.404;2024-03-23T09:19:16;20.00;;;10.20;;
16766;SDS011;8501;49.926;8.404;2024-03-23T09:21:42;9.67;;;4.60;;
16766;SDS011;8501;49.926;8.404;2024-03-23T09:24:08;10.73;;;5.03;;
16766;SDS011;8501;49.926;8.404;2024-03-23T09:26:34;8.07;;;4.00;;
16766;SDS011;8501;49.926;8.404;2024-03-23T09:28:59;10.07;;;4.23;;
16766;SDS011;8501;49.926;8.404;2024-03-23T09:31:25;8.83;;;3.90;;
16766;SDS011;8501;49.926;8.404;2024-03-23T09:33:51;8.93;;;3.40;;
16766;SDS011;8501;49.926;8.404;2024-03-23T09:36:16;8.63;;;3.50;;
16766;SDS011;8501;49.926;8.404;2024-03-23T09:38:42;10.07;;;4.03;;
16766;SDS011;8501;49.926;8.404;2024-03-23T09:41:08;8.87;;;3.50;;
16766;SDS011;8501;49.926;8.404;2024-03-23T09:43:34;10.57;;;4.00;;
16766;SDS011;8501;49.926;8.404;2024-03-23T09:46:01;9.27;;;4.00;;
16766;SDS011;8501;49.926;8.404;2024-03-23T09:48:27;8.80;;;3.57;;
16766;SDS011;8501;49.926;8.404;2024-03-23T09:50:53;10.77;;;3.20;;
16766;SDS011;8501;49.926;8.404;2024-03-23T09:53:22;6.77;;;2.70;;
16766;SDS011;8501;49.926;8.404;2024-03-23T09:55:48;7.53;;;2.60;;
16766;SDS011;8501;49.926;8.404;2024-03-23T09:58:17;6.07;;;2.70;;
16766;SDS011;8501;49.926;8.404;2024-03-23T10:00:43;6.33;;;2.83;;
16766;SDS011;8501;49.926;8.404;2024-03-23T10:03:09;5.60;;;2.57;;
16766;SDS011;8501;49.926;8.404;2024-03-23T10:05:36;7.27;;;3.17;;
16766;SDS011;8501;49.926;8.404;2024-03-23T10:10:40;9.13;;;3.00;;
16766;SDS011;8501;49.926;8.404;2024-03-23T10:13:06;6.50;;;2.60;;
16766;SDS011;8501;49.926;8.404;2024-03-23T10:15:35;4.77;;;2.60;;
16766;SDS011;8501;49.926;8.404;2024-03-23T10:18:19;6.87;;;2.60;;
16766;SDS011;8501;49.926;8.404;2024-03-23T10:20:52;9.00;;;2.97;;
16766;SDS011;8501;49.926;8.404;2024-03-23T10:23:31;7.30;;;2.70;;
16766;SDS011;8501;49.926;8.404;2024-03-23T10:26:39;6.23;;;2.47;;
16766;SDS011;8501;49.926;8.404;2024-03-23T10:28:50;7.03;;;2.67;;
16766;SDS011;8501;49.926;8.404;2024-03-23T10:31:25;9.87;;;2.93;;
16766;SDS011;8501;49.926;8.404;2024-03-23T10:33:51;8.47;;;2.73;;
16766;SDS011;8501;49.926;8.404;2024-03-23T10:36:19;7.13;;;2.13;;
16766;SDS011;8501;49.926;8.404;2024-03-23T10:38:46;4.23;;;1.80;;
16766;SDS011;8501;49.926;8.404;2024-03-23T10:41:12;5.63;;;2.50;;
16766;SDS011;8501;49.926;8.404;2024-03-23T10:43:38;7.97;;;3.00;;
16766;SDS011;8501;49.926;8.404;2024-03-23T10:46:05;13.80;;;7.57;;
16766;SDS011;8501;49.926;8.404;2024-03-23T10:48:32;16.23;;;13.13;;
16766;SDS011;8501;49.926;8.404;2024-03-23T10:50:57;26.23;;;14.10;;
16766;SDS011;8501;49.926;8.404;2024-03-23T10:53:25;16.13;;;9.20;;
16766;SDS011;8501;49.926;8.404;2024-03-23T10:55:52;10.13;;;4.93;;
16766;SDS011;8501;49.926;8.404;2024-03-23T10:58:23;6.50;;;2.63;;
16766;SDS011;8501;49.926;8.404;2024-03-23T11:00:52;5.20;;;2.10;;
16766;SDS011;8501;49.926;8.404;2024-03-23T11:03:31;6.10;;;2.30;;
16766;SDS011;8501;49.926;8.404;2024-03-23T11:05:59;6.93;;;3.27;;
16766;SDS011;8501;49.926;8.404;2024-03-23T11:08:31;5.23;;;2.93;;
16766;SDS011;8501;49.926;8.404;2024-03-23T11:11:14;6.93;;;3.00;;
16766;SDS011;8501;49.926;8.404;2024-03-23T11:13:48;5.73;;;3.10;;
16766;SDS011;8501;49.926;8.404;2024-03-23T11:16:16;6.70;;;3.30;;
16766;SDS011;8501;49.926;8.404;2024-03-23T11:18:42;4.57;;;2.57;;
16766;SDS011;8501;49.926;8.404;2024-03-23T11:21:09;4.47;;;1.77;;
16766;SDS011;8501;49.926;8.404;2024-03-23T11:23:35;2.47;;;1.23;;
16766;SDS011;8501;49.926;8.404;2024-03-23T11:26:01;2.50;;;1.30;;
16766;SDS011;8501;49.926;8.404;2024-03-23T11:28:26;3.37;;;2.57;;
16766;SDS011;8501;49.926;8.404;2024-03-23T11:30:52;1.63;;;1.53;;
16766;SDS011;8501;49.926;8.404;2024-03-23T11:33:17;2.90;;;2.30;;
16766;SDS011;8501;49.926;8.404;2024-03-23T11:35:44;5.70;;;2.40;;
16766;SDS011;8501;49.926;8.404;2024-03-23T11:38:13;2.70;;;1.30;;
16766;SDS011;8501;49.926;8.404;2024-03-23T11:40:41;2.07;;;1.30;;
16766;SDS011;8501;49.926;8.404;2024-03-23T11:43:12;2.33;;;1.60;;
16766;SDS011;8501;49.926;8.404;2024-03-23T11:45:39;2.30;;;1.50;;
16766;SDS011;8501;49.926;8.404;2024-03-23T11:48:11;6.03;;;2.07;;
16766;SDS011;8501;49.926;8.404;2024-03-23T11:50:39;3.80;;;2.07;;
16766;SDS011;8501;49.926;8.404;2024-03-23T11:53:16;7.37;;;2.53;;
16766;SDS011;8501;49.926;8.404;2024-03-23T11:55:46;4.93;;;2.37;;
16766;SDS011;8501;49.926;8.404;2024-03-23T11:58:12;5.57;;;2.57;;
16766;SDS011;8501;49.926;8.404;2024-03-23T12:00:38;6.83;;;3.07;;
16766;SDS011;8501;49.926;8.404;2024-03-23T12:03:04;6.67;;;3.27;;
16766;SDS011;8501;49.926;8.404;2024-03-23T12:05:31;6.20;;;3.40;;
16766;SDS011;8501;49.926;8.404;2024-03-23T12:08:16;8.93;;;3.10;;
16766;SDS011;8501;49.926;8.404;2024-03-23T12:10:44;10.47;;;4.20;;
16766;SDS011;8501;49.926;8.404;2024-03-23T12:13:29;8.90;;;3.77;;
16766;SDS011;8501;49.926;8.404;2024-03-23T12:15:55;8.43;;;3.73;;
16766;SDS011;8501;49.926;8.404;2024-03-23T12:18:42;7.93;;;3.10;;
16766;SDS011;8501;49.926;8.404;2024-03-23T12:21:09;5.37;;;2.53;;
16766;SDS011;8501;49.926;8.404;2024-03-23T12:23:35;3.83;;;2.53;;
16766;SDS011;8501;49.926;8.404;2024-03-23T12:26:01;5.77;;;2.67;;
16766;SDS011;8501;49.926;8.404;2024-03-23T12:28:27;4.83;;;2.50;;
16766;SDS011;8501;49.926;8.404;2024-03-23T12:30:53;5.40;;;2.57;;
16766;SDS011;8501;49.926;8.404;2024-03-23T12:33:19;5.27;;;2.77;;
16766;SDS011;8501;49.926;8.404;2024-03-23T12:35:44;5.77;;;2.87;;
16766;SDS011;8501;49.926;8.404;2024-03-23T12:38:10;5.30;;;3.00;;
16766;SDS011;8501;49.926;8.404;2024-03-23T12:40:36;6.20;;;3.23;;
16766;SDS011;8501;49.926;8.404;2024-03-23T12:43:01;7.77;;;2.97;;
16766;SDS011;8501;49.926;8.404;2024-03-23T12:45:27;5.27;;;3.10;;
16766;SDS011;8501;49.926;8.404;2024-03-23T12:47:52;7.50;;;3.57;;
16766;SDS011;8501;49.926;8.404;2024-03-23T12:50:19;5.30;;;3.20;;
16766;SDS011;8501;49.926;8.404;2024-03-23T12:52:44;8.60;;;3.57;;
16766;SDS011;8501;49.926;8.404;2024-03-23T12:55:10;6.67;;;3.20;;
16766;SDS011;8501;49.926;8.404;2024-03-23T12:57:36;7.73;;;4.33;;
16766;SDS011;8501;49.926;8.404;2024-03-23T13:00:02;5.00;;;1.80;;
16766;SDS011;8501;49.926;8.404;2024-03-23T13:02:29;6.63;;;2.23;;
16766;SDS011;8501;49.926;8.404;2024-03-23T13:04:54;3.23;;;1.83;;
16766;SDS011;8501;49.926;8.404;2024-03-23T13:07:21;5.47;;;2.90;;
16766;SDS011;8501;49.926;8.404;2024-03-23T13:09:49;10.87;;;6.90;;
16766;SDS011;8501;49.926;8.404;2024-03-23T13:12:15;4.20;;;3.10;;
16766;SDS011;8501;49.926;8.404;2024-03-23T13:14:43;6.80;;;2.40;;
16766;SDS011;8501;49.926;8.404;2024-03-23T13:17:09;12.70;;;9.03;;
16766;SDS011;8501;49.926;8.404;2024-03-23T13:19:35;5.67;;;2.80;;
16766;SDS011;8501;49.926;8.404;2024-03-23T13:22:00;6.60;;;4.07;;
16766;SDS011;8501;49.926;8.404;2024-03-23T13:24:26;30.43;;;14.10;;
16766;SDS011;8501;49.926;8.404;2024-03-23T13:26:53;78.47;;;32.63;;
16766;SDS011;8501;49.926;8.404;2024-03-23T13:29:19;16.23;;;13.00;;
16766;SDS011;8501;49.926;8.404;2024-03-23T13:31:46;2.83;;;2.07;;
16766;SDS011;8501;49.926;8.404;2024-03-23T13:34:12;2.17;;;1.40;;
16766;SDS011;8501;49.926;8.404;2024-03-23T13:36:40;2.33;;;1.00;;
16766;SDS011;8501;49.926;8.404;2024-03-23T13:39:09;2.43;;;1.30;;
16766;SDS011;8501;49.926;8.404;2024-03-23T13:41:42;2.80;;;1.50;;
16766;SDS011;8501;49.926;8.404;2024-03-23T13:44:12;2.73;;;1.53;;
16766;SDS011;8501;49.926;8.404;2024-03-23T13:46:39;14.13;;;9.03;;
16766;SDS011;8501;49.926;8.404;2024-03-23T13:49:05;72.17;;;32.27;;
16766;SDS011;8501;49.926;8.404;2024-03-23T13:51:31;4.53;;;2.50;;
16766;SDS011;8501;49.926;8.404;2024-03-23T13:53:57;38.93;;;18.20;;
16766;SDS011;8501;49.926;8.404;2024-03-23T13:56:26;24.37;;;13.47;;
16766;SDS011;8501;49.926;8.404;2024-03-23T13:58:55;4.07;;;2.30;;
16766;SDS011;8501;49.926;8.404;2024-03-23T14:01:21;2.57;;;1.17;;
16766;SDS011;8501;49.926;8.404;2024-03-23T14:03:47;4.20;;;2.47;;
16766;SDS011;8501;49.926;8.404;2024-03-23T14:06:13;3.17;;;2.70;;
16766;SDS011;8501;49.926;8.404;2024-03-23T14:08:38;6.63;;;4.10;;
16766;SDS011;8501;49.926;8.404;2024-03-23T14:11:07;2.30;;;1.67;;
16766;SDS011;8501;49.926;8.404;2024-03-23T14:13:33;1.70;;;1.10;;
16766;SDS011;8501;49.926;8.404;2024-03-23T14:16:00;3.03;;;1.20;;
16766;SDS011;8501;49.926;8.404;2024-03-23T14:18:25;2.60;;;1.40;;
16766;SDS011;8501;49.926;8.404;2024-03-23T14:20:51;2.27;;;1.20;;
16766;SDS011;8501;49.926;8.404;2024-03-23T14:23:18;3.73;;;1.80;;
16766;SDS011;8501;49.926;8.404;2024-03-23T14:25:44;1.77;;;1.03;;
16766;SDS011;8501;49.926;8.404;2024-03-23T14:28:10;1.40;;;1.00;;
16766;SDS011;8501;49.926;8.404;2024-03-23T14:30:39;1.27;;;0.80;;
16766;SDS011;8501;49.926;8.404;2024-03-23T14:33:06;2.20;;;1.50;;
16766;SDS011;8501;49.926;8.404;2024-03-23T14:35:31;1.20;;;0.87;;
16766;SDS011;8501;49.926;8.404;2024-03-23T14:37:58;2.10;;;0.80;;
16766;SDS011;8501;49.926;8.404;2024-03-23T14:40:23;3.13;;;1.10;;
16766;SDS011;8501;49.926;8.404;2024-03-23T14:42:52;3.07;;;2.30;;
16766;SDS011;8501;49.926;8.404;2024-03-23T14:45:18;2.47;;;1.50;;
16766;SDS011;8501;49.926;8.404;2024-03-23T14:47:43;1.43;;;1.20;;
16766;SDS011;8501;49.926;8.404;2024-03-23T14:50:09;3.27;;;1.00;;
16766;SDS011;8501;49.926;8.404;2024-03-23T14:52:39;1.13;;;0.80;;
16766;SDS011;8501;49.926;8.404;2024-03-23T14:55:04;1.10;;;0.70;;
16766;SDS011;8501;49.926;8.404;2024-03-23T14:57:30;3.20;;;1.00;;
16766;SDS011;8501;49.926;8.404;2024-03-23T14:59:56;3.57;;;1.10;;
16766;SDS011;8501;49.926;8.404;2024-03-23T15:02:21;1.30;;;0.90;;
16766;SDS011;8501;49.926;8.404;2024-03-23T15:04:47;1.47;;;0.90;;
16766;SDS011;8501;49.926;8.404;2024-03-23T15:07:12;3.73;;;0.90;;
16766;SDS011;8501;49.926;8.404;2024-03-23T15:09:37;2.30;;;1.17;;
16766;SDS011;8501;49.926;8.404;2024-03-23T15:12:03;1.70;;;0.87;;
16766;SDS011;8501;49.926;8.404;2024-03-23T15:14:29;1.83;;;1.10;;
16766;SDS011;8501;49.926;8.404;2024-03-23T15:16:54;2.00;;;1.00;;
16766;SDS011;8501;49.926;8.404;2024-03-23T15:19:20;2.30;;;1.00;;
16766;SDS011;8501;49.926;8.404;2024-03-23T15:21:45;2.63;;;1.33;;
16766;SDS011;8501;49.926;8.404;2024-03-23T15:24:11;1.43;;;0.80;;
16766;SDS011;8501;49.926;8.404;2024-03-23T15:26:37;1.30;;;0.80;;
16766;SDS011;8501;49.926;8.404;2024-03-23T15:29:02;2.47;;;0.90;;
16766;SDS011;8501;49.926;8.404;2024-03-23T15:31:35;2.33;;;0.80;;
16766;SDS011;8501;49.926;8.404;2024-03-23T15:34:00;1.20;;;0.90;;
16766;SDS011;8501;49.926;8.404;2024-03-23T15:36:26;3.03;;;1.00;;
16766;SDS011;8501;49.926;8.404;2024-03-23T15:38:52;2.93;;;0.90;;
16766;SDS011;8501;49.926;8.404;2024-03-23T15:41:19;2.20;;;0.67;;
16766;SDS011;8501;49.926;8.404;2024-03-23T15:43:48;1.67;;;0.80;;
16766;SDS011;8501;49.926;8.404;2024-03-23T15:46:13;1.30;;;0.90;;